createdAt,value
2019-06-20T00:00:27.372Z,4.87
2019-06-20T00:02:55.271Z,5.10
2019-06-20T00:05:23.248Z,5.10
2019-06-20T00:07:51.128Z,4.87
2019-06-20T00:10:19.065Z,5.17
2019-06-20T00:12:59.463Z,5.47
2019-06-20T00:15:16.672Z,5.60
2019-06-20T00:17:44.367Z,4.93
2019-06-20T00:20:12.302Z,5.33
2019-06-20T00:22:40.790Z,4.70
2019-06-20T00:25:09.377Z,4.70
2019-06-20T00:27:37.098Z,5.27
2019-06-20T00:30:06.041Z,5.40
2019-06-20T00:32:33.727Z,5.70
2019-06-20T00:35:01.496Z,5.47
2019-06-20T00:37:29.313Z,5.80
2019-06-20T00:39:57.097Z,5.63
2019-06-20T00:42:25.280Z,5.33
2019-06-20T00:44:53.144Z,5.53
2019-06-20T00:47:21.560Z,4.83
2019-06-20T00:49:50.317Z,5.40
2019-06-20T00:52:18.020Z,4.93
2019-06-20T00:54:45.895Z,5.27
2019-06-20T00:57:13.571Z,6.10
2019-06-20T00:59:41.412Z,5.27
2019-06-20T01:02:09.099Z,5.33
2019-06-20T01:04:36.870Z,5.70
2019-06-20T01:07:04.562Z,5.73
2019-06-20T01:09:32.302Z,5.33
2019-06-20T01:12:00.110Z,6.63
2019-06-20T01:14:27.834Z,6.97
2019-06-20T01:16:55.527Z,5.83
2019-06-20T01:19:23.290Z,5.50
2019-06-20T01:21:51.161Z,6.93
2019-06-20T01:24:19.038Z,6.00
2019-06-20T01:26:46.828Z,5.93
2019-06-20T01:29:14.688Z,5.80
2019-06-20T01:31:42.610Z,5.50
2019-06-20T01:34:10.862Z,5.70
2019-06-20T01:36:38.567Z,6.17
2019-06-20T01:39:07.087Z,6.00
2019-06-20T01:41:35.064Z,6.77
2019-06-20T01:44:02.967Z,6.20
2019-06-20T01:46:30.696Z,6.47
2019-06-20T01:48:58.405Z,6.70
2019-06-20T01:51:26.280Z,6.47
2019-06-20T01:53:54.064Z,7.13
2019-06-20T01:56:21.818Z,5.73
2019-06-20T01:58:49.600Z,6.80
2019-06-20T02:01:17.556Z,6.60
2019-06-20T02:03:45.362Z,6.90
2019-06-20T02:06:13.482Z,6.33
2019-06-20T02:08:41.278Z,6.83
2019-06-20T02:11:09.114Z,6.73
2019-06-20T02:13:36.818Z,6.97
2019-06-20T02:16:04.947Z,6.10
2019-06-20T02:18:32.624Z,6.00
2019-06-20T02:21:00.801Z,6.70
2019-06-20T02:23:28.606Z,6.07
2019-06-20T02:25:56.480Z,6.47
2019-06-20T02:28:25.121Z,6.40
2019-06-20T02:30:52.909Z,6.27
2019-06-20T02:33:21.644Z,6.50
2019-06-20T02:35:49.631Z,6.40
2019-06-20T02:38:17.538Z,6.37
2019-06-20T02:40:45.567Z,6.87
2019-06-20T02:43:13.339Z,6.70
2019-06-20T02:45:41.237Z,6.67
2019-06-20T02:48:09.160Z,6.20
2019-06-20T02:50:37.086Z,6.03
2019-06-20T02:53:16.209Z,6.73
2019-06-20T02:55:44.919Z,6.57
2019-06-20T02:58:12.634Z,6.27
2019-06-20T03:00:51.937Z,7.03
2019-06-20T03:03:19.761Z,7.40
2019-06-20T03:05:47.618Z,7.07
2019-06-20T03:08:15.304Z,7.30
2019-06-20T03:10:43.226Z,7.17
2019-06-20T03:13:10.947Z,6.90
2019-06-20T03:15:39.293Z,7.07
2019-06-20T03:18:07.007Z,7.80
2019-06-20T03:20:34.853Z,6.80
2019-06-20T03:23:02.621Z,7.47
2019-06-20T03:25:30.425Z,7.37
2019-06-20T03:27:58.153Z,7.00
2019-06-20T03:30:26.133Z,7.97
2019-06-20T03:32:53.933Z,7.20
2019-06-20T03:35:21.618Z,6.87
2019-06-20T03:37:50.317Z,8.00
2019-06-20T03:40:18.339Z,7.93
2019-06-20T03:42:46.161Z,7.40
2019-06-20T03:45:15.963Z,7.40
2019-06-20T03:47:43.826Z,6.90
2019-06-20T03:50:11.740Z,7.00
2019-06-20T03:52:39.820Z,7.50
2019-06-20T03:55:10.436Z,7.33
2019-06-20T03:57:38.299Z,6.67
2019-06-20T04:00:06.292Z,7.20
2019-06-20T04:02:34.034Z,8.57
2019-06-20T04:05:01.760Z,7.87
2019-06-20T04:07:29.489Z,7.57
2019-06-20T04:09:57.799Z,7.27
2019-06-20T04:12:25.571Z,8.03
2019-06-20T04:14:53.284Z,7.47
2019-06-20T04:17:21.724Z,7.83
2019-06-20T04:19:50.213Z,7.07
2019-06-20T04:22:17.975Z,8.03
2019-06-20T04:24:45.776Z,7.17
2019-06-20T04:27:13.647Z,7.70
2019-06-20T04:29:41.349Z,6.47
2019-06-20T04:32:09.185Z,6.97
2019-06-20T04:34:36.892Z,6.87
2019-06-20T04:37:04.629Z,6.80
2019-06-20T04:39:32.322Z,6.70
2019-06-20T04:42:00.083Z,7.10
2019-06-20T04:44:27.792Z,6.87
2019-06-20T04:47:07.100Z,6.70
2019-06-20T04:49:34.883Z,6.30
2019-06-20T04:52:02.858Z,6.17
2019-06-20T04:54:30.577Z,6.10
2019-06-20T04:56:58.322Z,5.87
2019-06-20T04:59:26.164Z,5.50
2019-06-20T05:01:53.965Z,5.20
2019-06-20T05:04:21.657Z,5.00
2019-06-20T05:06:54.160Z,4.67
2019-06-20T05:09:22.873Z,4.67
2019-06-20T05:11:50.719Z,5.00
2019-06-20T05:14:18.621Z,4.87
2019-06-20T05:16:46.314Z,4.33
2019-06-20T05:19:14.080Z,4.73
2019-06-20T05:21:41.849Z,4.93
2019-06-20T05:24:09.679Z,4.00
2019-06-20T05:26:37.385Z,4.67
2019-06-20T05:29:05.571Z,4.50
2019-06-20T05:31:33.545Z,4.50
2019-06-20T05:34:01.321Z,4.70
2019-06-20T05:36:29.509Z,5.07
2019-06-20T05:38:57.247Z,4.73
2019-06-20T05:41:25.022Z,5.10
2019-06-20T05:43:52.894Z,5.30
2019-06-20T05:46:20.634Z,5.20
2019-06-20T05:48:48.569Z,4.50
2019-06-20T05:51:16.299Z,5.80
2019-06-20T05:53:44.740Z,5.30
2019-06-20T05:56:12.461Z,5.90
2019-06-20T05:58:40.207Z,5.63
2019-06-20T06:01:07.938Z,5.23
2019-06-20T06:03:35.797Z,5.20
2019-06-20T06:06:03.806Z,5.60
2019-06-20T06:08:31.579Z,5.63
2019-06-20T06:10:59.285Z,5.00
2019-06-20T06:13:27.051Z,4.57
2019-06-20T06:15:57.233Z,4.70
2019-06-20T06:18:25.098Z,5.07
2019-06-20T06:20:53.593Z,4.67
2019-06-20T06:23:21.390Z,4.70
2019-06-20T06:25:49.618Z,4.30
2019-06-20T06:28:17.400Z,3.80
2019-06-20T06:30:49.271Z,3.80
2019-06-20T06:33:17.126Z,4.30
2019-06-20T06:35:44.942Z,3.93
2019-06-20T06:38:13.436Z,3.90
2019-06-20T06:40:41.212Z,4.50
2019-06-20T06:43:08.979Z,4.27
2019-06-20T06:45:36.820Z,3.73
2019-06-20T06:48:05.289Z,3.73
2019-06-20T06:50:33.186Z,4.73
2019-06-20T06:53:01.052Z,4.17
2019-06-20T06:55:29.710Z,4.23
2019-06-20T06:57:57.566Z,4.00
2019-06-20T07:00:25.471Z,3.77
2019-06-20T07:02:53.191Z,4.27
2019-06-20T07:05:21.293Z,4.30
2019-06-20T07:07:49.084Z,4.53
2019-06-20T07:10:17.259Z,4.40
2019-06-20T07:12:45.033Z,3.97
2019-06-20T07:15:13.289Z,4.20
2019-06-20T07:17:40.986Z,4.60
2019-06-20T07:20:09.136Z,4.10
2019-06-20T07:22:36.997Z,4.33
2019-06-20T07:25:05.570Z,3.70
2019-06-20T07:27:33.288Z,3.60
2019-06-20T07:30:01.631Z,3.27
2019-06-20T07:32:29.364Z,4.20
2019-06-20T07:34:57.806Z,3.90
2019-06-20T07:37:25.525Z,3.80
2019-06-20T07:39:53.295Z,3.63
2019-06-20T07:42:21.162Z,3.87
2019-06-20T07:44:48.945Z,4.07
2019-06-20T07:47:18.067Z,3.73
2019-06-20T07:49:46.195Z,3.73
2019-06-20T07:52:13.869Z,4.00
2019-06-20T07:54:41.908Z,4.23
2019-06-20T07:57:10.010Z,3.90
2019-06-20T07:59:37.800Z,3.33
2019-06-20T08:02:05.714Z,3.57
2019-06-20T08:04:33.488Z,4.33
2019-06-20T08:07:01.280Z,3.70
2019-06-20T08:09:43.910Z,3.57
2019-06-20T08:11:58.722Z,3.70
2019-06-20T08:14:26.643Z,3.50
2019-06-20T08:16:55.378Z,3.83
2019-06-20T08:19:23.140Z,3.83
2019-06-20T08:21:50.868Z,3.90
2019-06-20T08:24:19.064Z,3.77
2019-06-20T08:26:46.779Z,3.30
2019-06-20T08:29:20.863Z,3.80
2019-06-20T08:31:44.277Z,3.57
2019-06-20T08:34:12.016Z,3.87
2019-06-20T08:36:39.916Z,4.13
2019-06-20T08:39:09.480Z,4.80
2019-06-20T08:41:37.233Z,3.60
2019-06-20T08:44:06.131Z,3.80
2019-06-20T08:46:34.477Z,3.70
2019-06-20T08:49:03.512Z,3.67
2019-06-20T08:51:32.154Z,3.53
2019-06-20T08:54:01.083Z,3.80
2019-06-20T08:56:29.303Z,2.80
2019-06-20T08:58:58.468Z,3.30
2019-06-20T09:01:26.481Z,3.43
2019-06-20T09:03:55.669Z,3.17
2019-06-20T09:06:30.388Z,3.07
2019-06-20T09:09:00.012Z,3.13
2019-06-20T09:11:27.931Z,3.33
2019-06-20T09:13:57.117Z,3.33
2019-06-20T09:16:25.381Z,3.20
2019-06-20T09:18:54.641Z,2.30
2019-06-20T09:21:22.989Z,2.70
2019-06-20T09:23:52.372Z,2.50
2019-06-20T09:26:20.589Z,3.00
2019-06-20T09:28:48.307Z,2.37
2019-06-20T09:31:16.078Z,2.20
2019-06-20T09:33:43.807Z,2.77
2019-06-20T09:36:11.557Z,2.57
2019-06-20T09:38:39.273Z,2.80
2019-06-20T09:41:07.490Z,2.40
2019-06-20T09:43:35.173Z,2.43
2019-06-20T09:46:03.296Z,2.37
2019-06-20T09:48:31.032Z,2.83
2019-06-20T09:50:58.808Z,2.97
2019-06-20T09:53:26.870Z,2.57
2019-06-20T09:55:55.669Z,2.90
2019-06-20T09:58:23.930Z,2.80
2019-06-20T10:00:52.873Z,2.77
2019-06-20T10:03:20.802Z,2.30
2019-06-20T10:05:49.331Z,2.57
2019-06-20T10:08:18.346Z,2.70
2019-06-20T10:10:47.100Z,2.50
2019-06-20T10:13:15.795Z,2.20
2019-06-20T10:15:44.934Z,2.90
2019-06-20T10:18:13.522Z,2.70
2019-06-20T10:20:41.580Z,2.73
2019-06-20T10:23:09.520Z,2.70
2019-06-20T10:25:37.746Z,2.23
2019-06-20T10:28:05.700Z,2.50
2019-06-20T10:30:33.399Z,2.90
2019-06-20T10:33:01.181Z,2.60
2019-06-20T10:35:29.047Z,2.40
2019-06-20T10:37:57.274Z,2.60
2019-06-20T10:40:26.507Z,3.00
2019-06-20T10:42:54.416Z,2.83
2019-06-20T10:45:23.671Z,2.53
2019-06-20T10:47:53.826Z,2.20
2019-06-20T10:50:25.686Z,2.60
2019-06-20T10:52:53.551Z,2.30
2019-06-20T10:55:21.562Z,2.50
2019-06-20T10:57:52.052Z,2.57
2019-06-20T11:00:30.974Z,2.50
2019-06-20T11:02:52.276Z,2.37
2019-06-20T11:05:21.390Z,2.67
2019-06-20T11:07:50.677Z,2.30
2019-06-20T11:10:19.030Z,2.50
2019-06-20T11:12:52.991Z,2.47
2019-06-20T11:15:19.567Z,2.70
2019-06-20T11:17:48.461Z,2.40
2019-06-20T11:20:18.347Z,2.47
2019-06-20T11:22:47.598Z,2.73
2019-06-20T11:25:18.993Z,3.23
2019-06-20T11:27:47.236Z,3.43
2019-06-20T11:30:16.555Z,2.30
2019-06-20T11:32:45.730Z,2.20
2019-06-20T11:35:13.949Z,3.07
2019-06-20T11:37:42.314Z,2.20
2019-06-20T11:40:10.761Z,2.83
2019-06-20T11:42:39.849Z,2.53
2019-06-20T11:45:08.414Z,2.37
2019-06-20T11:47:36.666Z,2.20
2019-06-20T11:50:05.285Z,2.40
2019-06-20T11:52:38.819Z,2.53
2019-06-20T11:55:04.226Z,2.50
2019-06-20T11:57:32.067Z,2.33
2019-06-20T11:59:59.789Z,2.47
2019-06-20T12:02:27.629Z,2.40
2019-06-20T12:04:55.448Z,2.67
2019-06-20T12:07:23.358Z,2.90
2019-06-20T12:09:51.170Z,2.70
2019-06-20T12:12:19.121Z,2.20
2019-06-20T12:14:46.956Z,2.43
2019-06-20T12:17:14.700Z,2.30
2019-06-20T12:19:42.510Z,2.10
2019-06-20T12:22:10.372Z,2.30
2019-06-20T12:24:40.023Z,2.40
2019-06-20T12:27:09.295Z,2.43
2019-06-20T12:29:37.742Z,2.47
2019-06-20T12:32:09.886Z,2.20
2019-06-20T12:34:38.836Z,3.13
2019-06-20T12:37:06.313Z,2.13
2019-06-20T12:39:34.061Z,2.43
2019-06-20T12:42:01.813Z,2.53
2019-06-20T12:44:41.750Z,2.43
2019-06-20T12:47:10.165Z,2.40
2019-06-20T12:49:38.976Z,2.40
2019-06-20T12:52:07.659Z,2.50
2019-06-20T12:54:35.433Z,2.53
2019-06-20T12:57:03.314Z,2.27
2019-06-20T12:59:31.793Z,2.60
2019-06-20T13:01:59.545Z,2.40
2019-06-20T13:04:27.402Z,2.80
2019-06-20T13:06:55.228Z,2.03
2019-06-20T13:09:23.007Z,2.80
2019-06-20T13:11:50.724Z,2.67
2019-06-20T13:14:19.234Z,2.93
2019-06-20T13:16:48.162Z,2.80
2019-06-20T13:19:16.106Z,2.70
2019-06-20T13:21:44.651Z,2.60
2019-06-20T13:24:12.649Z,2.70
2019-06-20T13:26:41.144Z,3.00
2019-06-20T13:29:10.319Z,2.60
2019-06-20T13:31:54.794Z,2.80
2019-06-20T13:34:07.716Z,2.80
2019-06-20T13:36:35.573Z,3.30
2019-06-20T13:39:06.270Z,3.30
2019-06-20T13:41:34.294Z,3.27
2019-06-20T13:44:05.988Z,3.30
2019-06-20T13:46:33.690Z,3.10
2019-06-20T13:49:10.761Z,2.97
2019-06-20T13:51:39.978Z,3.50
2019-06-20T13:54:08.371Z,3.10
2019-06-20T13:56:36.303Z,3.20
2019-06-20T13:59:04.524Z,3.50
2019-06-20T14:01:32.243Z,3.07
2019-06-20T14:03:59.967Z,3.10
2019-06-20T14:06:27.827Z,2.93
2019-06-20T14:08:55.608Z,3.53
2019-06-20T14:11:23.352Z,3.00
2019-06-20T14:13:53.061Z,2.93
2019-06-20T14:16:22.072Z,2.90
2019-06-20T14:18:50.344Z,3.10
2019-06-20T14:21:18.904Z,3.13
2019-06-20T14:23:48.126Z,2.90
2019-06-20T14:26:16.183Z,3.20
2019-06-20T14:28:44.331Z,3.70
2019-06-20T14:31:12.350Z,3.37
2019-06-20T14:33:40.130Z,3.50
2019-06-20T14:36:09.915Z,3.30
2019-06-20T14:38:37.782Z,3.27
2019-06-20T14:41:07.336Z,3.20
2019-06-20T14:43:36.880Z,3.07
2019-06-20T14:46:05.033Z,2.90
2019-06-20T14:48:32.906Z,3.57
2019-06-20T14:51:00.755Z,3.30
2019-06-20T14:53:32.387Z,2.60
2019-06-20T14:56:03.704Z,2.80
2019-06-20T14:58:32.457Z,2.53
2019-06-20T15:01:00.415Z,3.00
2019-06-20T15:03:28.362Z,2.30
2019-06-20T15:05:56.213Z,2.37
2019-06-20T15:08:24.115Z,2.40
2019-06-20T15:10:54.033Z,2.30
2019-06-20T15:13:22.428Z,2.30
2019-06-20T15:15:51.143Z,2.70
2019-06-20T15:18:21.014Z,2.80
2019-06-20T15:20:52.253Z,2.20
2019-06-20T15:23:21.544Z,3.17
2019-06-20T15:25:52.015Z,2.60
2019-06-20T15:28:27.139Z,2.40
2019-06-20T15:30:55.110Z,2.50
2019-06-20T15:33:25.469Z,2.50
2019-06-20T15:35:55.234Z,2.90
2019-06-20T15:38:25.451Z,2.40
2019-06-20T15:40:53.500Z,2.50
2019-06-20T15:43:21.776Z,2.60
2019-06-20T15:45:50.741Z,2.27
2019-06-20T15:48:22.224Z,2.30
2019-06-20T15:50:50.058Z,2.50
2019-06-20T15:53:18.050Z,2.70
2019-06-20T15:55:46.803Z,2.70
2019-06-20T15:58:14.703Z,2.60
2019-06-20T16:00:42.610Z,2.50
2019-06-20T16:03:13.653Z,2.63
2019-06-20T16:05:40.676Z,2.80
2019-06-20T16:08:08.551Z,2.60
2019-06-20T16:10:36.406Z,2.93
2019-06-20T16:13:04.184Z,2.83
2019-06-20T16:15:31.933Z,3.00
2019-06-20T16:17:59.631Z,2.80
2019-06-20T16:20:27.410Z,3.00
2019-06-20T16:22:55.698Z,3.23
2019-06-20T16:25:30.871Z,3.03
2019-06-20T16:27:59.412Z,2.80
2019-06-20T16:30:29.097Z,2.90
2019-06-20T16:32:56.986Z,3.00
2019-06-20T16:35:24.870Z,3.37
2019-06-20T16:37:52.868Z,3.03
2019-06-20T16:40:37.727Z,3.10
2019-06-20T16:43:05.425Z,3.00
2019-06-20T16:45:33.322Z,3.53
2019-06-20T16:48:01.652Z,3.13
2019-06-20T16:50:29.528Z,3.07
2019-06-20T16:53:01.045Z,3.30
2019-06-20T16:55:27.015Z,3.00
2019-06-20T16:57:54.774Z,2.70
2019-06-20T17:00:23.381Z,3.00
2019-06-20T17:02:51.161Z,2.97
2019-06-20T17:05:19.876Z,3.47
2019-06-20T17:07:47.617Z,3.40
2019-06-20T17:10:15.600Z,3.30
2019-06-20T17:12:43.525Z,3.00
2019-06-20T17:15:11.737Z,4.67
2019-06-20T17:17:39.719Z,6.60
2019-06-20T17:20:09.279Z,4.87
2019-06-20T17:22:39.340Z,4.37
2019-06-20T17:25:07.649Z,3.83
2019-06-20T17:27:35.612Z,4.60
2019-06-20T17:30:04.119Z,4.03
2019-06-20T17:32:32.110Z,3.87
2019-06-20T17:35:00.298Z,3.17
2019-06-20T17:37:28.033Z,3.37
2019-06-20T17:39:55.797Z,3.57
2019-06-20T17:42:23.646Z,3.50
2019-06-20T17:44:51.354Z,3.40
2019-06-20T17:47:19.092Z,3.80
2019-06-20T17:49:46.816Z,4.53
2019-06-20T17:52:14.767Z,3.80
2019-06-20T17:54:42.463Z,4.13
2019-06-20T17:57:11.356Z,73.87
2019-06-20T17:59:39.072Z,67.40
2019-06-20T18:02:07.017Z,19.23
2019-06-20T18:04:36.760Z,10.60
2019-06-20T18:07:04.636Z,8.37
2019-06-20T18:09:32.353Z,4.20
2019-06-20T18:12:00.102Z,4.77
2019-06-20T18:14:27.825Z,4.10
2019-06-20T18:16:55.741Z,4.47
2019-06-20T18:19:23.556Z,6.80
2019-06-20T18:21:51.285Z,4.23
2019-06-20T18:24:18.991Z,4.23
2019-06-20T18:26:46.738Z,3.80
2019-06-20T18:29:14.618Z,2.93
2019-06-20T18:31:42.606Z,3.40
2019-06-20T18:34:10.360Z,3.27
2019-06-20T18:36:38.222Z,3.70
2019-06-20T18:39:39.328Z,3.53
2019-06-20T18:42:07.175Z,3.07
2019-06-20T18:44:34.885Z,3.60
2019-06-20T18:47:02.737Z,3.23
2019-06-20T18:49:30.456Z,2.90
2019-06-20T18:51:58.258Z,3.17
2019-06-20T18:54:26.562Z,2.70
2019-06-20T18:56:54.362Z,2.97
2019-06-20T18:59:22.205Z,2.90
2019-06-20T19:01:50.088Z,2.90
2019-06-20T19:04:17.907Z,2.93
2019-06-20T19:06:46.292Z,2.87
2019-06-20T19:09:14.028Z,2.90
2019-06-20T19:11:42.360Z,2.70
2019-06-20T19:14:12.539Z,2.70
2019-06-20T19:16:39.682Z,2.60
2019-06-20T19:19:07.848Z,2.50
2019-06-20T19:21:35.649Z,3.10
2019-06-20T19:24:05.192Z,2.80
2019-06-20T19:26:33.603Z,3.20
2019-06-20T19:29:01.856Z,4.30
2019-06-20T19:31:29.569Z,5.57
2019-06-20T19:33:57.460Z,4.10
2019-06-20T19:36:25.305Z,3.03
2019-06-20T19:38:53.453Z,2.60
2019-06-20T19:41:21.385Z,2.87
2019-06-20T19:43:49.427Z,2.90
2019-06-20T19:46:17.311Z,2.90
2019-06-20T19:48:45.533Z,3.47
2019-06-20T19:51:14.184Z,3.03
2019-06-20T19:53:45.859Z,2.80
2019-06-20T19:56:12.562Z,3.60
2019-06-20T19:58:41.166Z,3.30
2019-06-20T20:01:09.096Z,3.10
2019-06-20T20:03:41.970Z,3.20
2019-06-20T20:06:09.854Z,3.40
2019-06-20T20:08:37.803Z,3.83
2019-06-20T20:11:05.576Z,3.83
2019-06-20T20:13:33.421Z,3.60
2019-06-20T20:16:01.221Z,3.37
2019-06-20T20:18:28.978Z,3.80
2019-06-20T20:20:56.735Z,4.20
2019-06-20T20:23:24.495Z,3.80
2019-06-20T20:25:52.550Z,4.13
2019-06-20T20:28:20.951Z,3.60
2019-06-20T20:30:53.421Z,3.70
2019-06-20T20:33:20.219Z,3.80
2019-06-20T20:35:47.944Z,3.87
2019-06-20T20:38:16.341Z,8.40
2019-06-20T20:40:44.888Z,4.80
2019-06-20T20:43:13.075Z,4.00
2019-06-20T20:45:41.388Z,3.30
2019-06-20T20:48:09.207Z,3.87
2019-06-20T20:50:36.879Z,3.10
2019-06-20T20:53:05.007Z,3.47
2019-06-20T20:55:32.675Z,3.33
2019-06-20T20:58:00.703Z,3.77
2019-06-20T21:00:35.448Z,3.53
2019-06-20T21:03:07.128Z,3.93
2019-06-20T21:05:51.392Z,3.70
2019-06-20T21:08:12.627Z,3.90
2019-06-20T21:10:40.323Z,3.73
2019-06-20T21:13:08.170Z,4.07
2019-06-20T21:15:35.838Z,4.03
2019-06-20T21:18:03.658Z,3.47
2019-06-20T21:20:33.061Z,3.47
2019-06-20T21:23:01.359Z,3.50
2019-06-20T21:25:32.178Z,3.30
2019-06-20T21:27:58.824Z,3.33
2019-06-20T21:30:26.778Z,3.13
2019-06-20T21:32:54.443Z,3.23
2019-06-20T21:35:22.872Z,3.40
2019-06-20T21:37:50.547Z,3.83
2019-06-20T21:40:18.508Z,3.97
2019-06-20T21:42:49.814Z,3.83
2019-06-20T21:45:17.738Z,3.90
2019-06-20T21:47:45.555Z,3.87
2019-06-20T21:50:24.838Z,3.40
2019-06-20T21:52:52.622Z,3.87
2019-06-20T21:55:21.075Z,3.70
2019-06-20T21:57:48.404Z,3.67
2019-06-20T22:00:23.025Z,3.87
2019-06-20T22:02:50.868Z,3.40
2019-06-20T22:05:19.612Z,3.43
2019-06-20T22:07:57.755Z,3.37
2019-06-20T22:10:25.677Z,3.30
2019-06-20T22:12:53.521Z,3.30
2019-06-20T22:15:21.470Z,3.20
2019-06-20T22:17:49.148Z,3.27
2019-06-20T22:20:18.213Z,3.50
2019-06-20T22:22:45.968Z,3.73
2019-06-20T22:25:14.226Z,3.40
2019-06-20T22:27:42.155Z,3.13
2019-06-20T22:30:10.557Z,3.00
2019-06-20T22:32:38.238Z,3.37
2019-06-20T22:35:06.516Z,3.67
2019-06-20T22:37:34.290Z,3.80
2019-06-20T22:40:02.138Z,3.47
2019-06-20T22:42:29.894Z,3.57
2019-06-20T22:44:58.641Z,3.20
2019-06-20T22:47:26.403Z,3.40
2019-06-20T22:49:54.522Z,4.00
2019-06-20T22:52:22.825Z,3.60
2019-06-20T22:54:51.250Z,3.37
2019-06-20T22:57:19.265Z,3.73
2019-06-20T22:59:46.999Z,3.40
2019-06-20T23:02:14.797Z,3.27
2019-06-20T23:04:42.507Z,3.00
2019-06-20T23:07:10.298Z,2.90
2019-06-20T23:09:38.057Z,3.13
2019-06-20T23:12:06.533Z,3.17
2019-06-20T23:14:34.227Z,2.83
2019-06-20T23:17:01.909Z,3.50
2019-06-20T23:19:30.331Z,3.10
2019-06-20T23:21:58.024Z,3.03
2019-06-20T23:24:25.760Z,3.20
2019-06-20T23:26:53.594Z,3.00
2019-06-20T23:29:24.308Z,3.80
2019-06-20T23:31:53.381Z,3.00
2019-06-20T23:34:21.303Z,2.80
2019-06-20T23:36:49.469Z,3.23
2019-06-20T23:39:21.212Z,3.13
2019-06-20T23:41:49.139Z,2.80
2019-06-20T23:44:16.911Z,2.80
2019-06-20T23:46:44.768Z,3.27
2019-06-20T23:49:12.464Z,2.90
2019-06-20T23:51:46.433Z,2.93
2019-06-20T23:54:14.503Z,3.30
2019-06-20T23:56:42.224Z,3.20
2019-06-20T23:59:09.945Z,3.33
